sensor_id;sensor_type;location;lat;lon;timestamp;P1;durP1;ratioP1;P2;durP2;ratioP2
13250;SDS011;6692;50.710;7.180;2024-02-15T00:01:23;2.90;;;2.70;;
13250;SDS011;6692;50.710;7.180;2024-02-15T00:03:23;4.53;;;3.27;;
13250;SDS011;6692;50.710;7.180;2024-02-15T00:05:25;2.90;;;2.60;;
13250;SDS011;6692;50.710;7.180;2024-02-15T00:07:26;3.30;;;2.47;;
13250;SDS011;6692;50.710;7.180;2024-02-15T00:09:27;3.20;;;2.60;;
13250;SDS011;6692;50.710;7.180;2024-02-15T00:11:27;2.87;;;2.67;;
13250;SDS011;6692;50.710;7.180;2024-02-15T00:13:28;2.57;;;2.37;;
13250;SDS011;6692;50.710;7.180;2024-02-15T00:15:29;3.70;;;2.97;;
13250;SDS011;6692;50.710;7.180;2024-02-15T00:17:29;3.10;;;2.80;;
13250;SDS011;6692;50.710;7.180;2024-02-15T00:19:30;2.50;;;2.30;;
13250;SDS011;6692;50.710;7.180;2024-02-15T00:21:31;2.97;;;2.77;;
13250;SDS011;6692;50.710;7.180;2024-02-15T00:23:31;3.10;;;2.80;;
13250;SDS011;6692;50.710;7.180;2024-02-15T00:25:32;2.90;;;2.70;;
13250;SDS011;6692;50.710;7.180;2024-02-15T00:27:33;2.80;;;2.60;;
13250;SDS011;6692;50.710;7.180;2024-02-15T00:29:34;2.70;;;2.50;;
13250;SDS011;6692;50.710;7.180;2024-02-15T00:31:35;2.87;;;2.67;;
13250;SDS011;6692;50.710;7.180;2024-02-15T00:33:36;3.33;;;3.03;;
13250;SDS011;6692;50.710;7.180;2024-02-15T00:35:37;2.80;;;2.60;;
13250;SDS011;6692;50.710;7.180;2024-02-15T00:37:38;3.13;;;2.83;;
13250;SDS011;6692;50.710;7.180;2024-02-15T00:39:39;2.67;;;2.47;;
13250;SDS011;6692;50.710;7.180;2024-02-15T00:41:40;2.70;;;2.50;;
13250;SDS011;6692;50.710;7.180;2024-02-15T00:43:41;2.90;;;2.60;;
13250;SDS011;6692;50.710;7.180;2024-02-15T00:45:41;2.57;;;2.37;;
13250;SDS011;6692;50.710;7.180;2024-02-15T00:47:42;3.83;;;2.70;;
13250;SDS011;6692;50.710;7.180;2024-02-15T00:49:43;2.57;;;2.37;;
13250;SDS011;6692;50.710;7.180;2024-02-15T00:51:43;2.97;;;2.77;;
13250;SDS011;6692;50.710;7.180;2024-02-15T00:53:44;3.17;;;2.80;;
13250;SDS011;6692;50.710;7.180;2024-02-15T00:55:45;2.80;;;2.60;;
13250;SDS011;6692;50.710;7.180;2024-02-15T00:57:46;2.83;;;2.57;;
13250;SDS011;6692;50.710;7.180;2024-02-15T00:59:47;3.70;;;2.63;;
13250;SDS011;6692;50.710;7.180;2024-02-15T01:01:48;4.23;;;2.60;;
13250;SDS011;6692;50.710;7.180;2024-02-15T01:03:48;3.00;;;2.70;;
13250;SDS011;6692;50.710;7.180;2024-02-15T01:05:49;3.00;;;2.80;;
13250;SDS011;6692;50.710;7.180;2024-02-15T01:07:50;2.87;;;2.67;;
13250;SDS011;6692;50.710;7.180;2024-02-15T01:09:51;2.67;;;2.47;;
13250;SDS011;6692;50.710;7.180;2024-02-15T01:11:51;2.80;;;2.60;;
13250;SDS011;6692;50.710;7.180;2024-02-15T01:13:53;2.87;;;2.67;;
13250;SDS011;6692;50.710;7.180;2024-02-15T01:15:53;3.00;;;2.73;;
13250;SDS011;6692;50.710;7.180;2024-02-15T01:17:54;3.03;;;2.83;;
13250;SDS011;6692;50.710;7.180;2024-02-15T01:19:55;2.90;;;2.67;;
13250;SDS011;6692;50.710;7.180;2024-02-15T01:21:56;3.20;;;2.90;;
13250;SDS011;6692;50.710;7.180;2024-02-15T01:23:56;3.20;;;2.77;;
13250;SDS011;6692;50.710;7.180;2024-02-15T01:25:57;3.17;;;2.93;;
13250;SDS011;6692;50.710;7.180;2024-02-15T01:27:58;2.77;;;2.53;;
13250;SDS011;6692;50.710;7.180;2024-02-15T01:29:59;2.63;;;2.43;;
13250;SDS011;6692;50.710;7.180;2024-02-15T01:32:00;3.00;;;2.80;;
13250;SDS011;6692;50.710;7.180;2024-02-15T01:34:02;3.63;;;2.77;;
13250;SDS011;6692;50.710;7.180;2024-02-15T01:36:03;3.30;;;2.60;;
13250;SDS011;6692;50.710;7.180;2024-02-15T01:38:05;6.03;;;2.80;;
13250;SDS011;6692;50.710;7.180;2024-02-15T01:40:06;3.17;;;2.87;;
13250;SDS011;6692;50.710;7.180;2024-02-15T01:42:07;2.77;;;2.57;;
13250;SDS011;6692;50.710;7.180;2024-02-15T01:44:09;2.60;;;2.40;;
13250;SDS011;6692;50.710;7.180;2024-02-15T01:46:09;3.37;;;2.90;;
13250;SDS011;6692;50.710;7.180;2024-02-15T01:48:10;3.50;;;2.90;;
13250;SDS011;6692;50.710;7.180;2024-02-15T01:50:11;3.07;;;2.73;;
13250;SDS011;6692;50.710;7.180;2024-02-15T01:52:11;3.40;;;3.10;;
13250;SDS011;6692;50.710;7.180;2024-02-15T01:54:12;3.00;;;2.70;;
13250;SDS011;6692;50.710;7.180;2024-02-15T01:56:13;2.70;;;2.50;;
13250;SDS011;6692;50.710;7.180;2024-02-15T01:58:13;2.90;;;2.60;;
13250;SDS011;6692;50.710;7.180;2024-02-15T02:00:15;3.00;;;2.80;;
13250;SDS011;6692;50.710;7.180;2024-02-15T02:02:16;3.47;;;3.00;;
13250;SDS011;6692;50.710;7.180;2024-02-15T02:04:17;3.83;;;3.10;;
13250;SDS011;6692;50.710;7.180;2024-02-15T02:06:18;3.70;;;3.10;;
13250;SDS011;6692;50.710;7.180;2024-02-15T02:08:19;3.33;;;2.90;;
13250;SDS011;6692;50.710;7.180;2024-02-15T02:10:20;2.90;;;2.70;;
13250;SDS011;6692;50.710;7.180;2024-02-15T02:12:21;2.87;;;2.67;;
13250;SDS011;6692;50.710;7.180;2024-02-15T02:14:22;3.20;;;2.73;;
13250;SDS011;6692;50.710;7.180;2024-02-15T02:16:24;3.00;;;2.80;;
13250;SDS011;6692;50.710;7.180;2024-02-15T02:18:33;2.97;;;2.77;;
13250;SDS011;6692;50.710;7.180;2024-02-15T02:20:34;3.07;;;2.77;;
13250;SDS011;6692;50.710;7.180;2024-02-15T02:22:35;3.20;;;2.90;;
13250;SDS011;6692;50.710;7.180;2024-02-15T02:24:36;3.23;;;2.93;;
13250;SDS011;6692;50.710;7.180;2024-02-15T02:26:37;3.17;;;2.97;;
13250;SDS011;6692;50.710;7.180;2024-02-15T02:28:38;4.33;;;2.80;;
13250;SDS011;6692;50.710;7.180;2024-02-15T02:30:39;3.30;;;3.00;;
13250;SDS011;6692;50.710;7.180;2024-02-15T02:32:41;3.20;;;3.00;;
13250;SDS011;6692;50.710;7.180;2024-02-15T02:34:42;2.90;;;2.70;;
13250;SDS011;6692;50.710;7.180;2024-02-15T02:36:43;3.17;;;2.90;;
13250;SDS011;6692;50.710;7.180;2024-02-15T02:38:45;3.33;;;3.00;;
13250;SDS011;6692;50.710;7.180;2024-02-15T02:40:46;3.60;;;2.70;;
13250;SDS011;6692;50.710;7.180;2024-02-15T02:42:49;3.00;;;2.80;;
13250;SDS011;6692;50.710;7.180;2024-02-15T02:44:49;4.17;;;2.90;;
13250;SDS011;6692;50.710;7.180;2024-02-15T02:46:50;3.40;;;3.10;;
13250;SDS011;6692;50.710;7.180;2024-02-15T02:48:53;2.87;;;2.53;;
13250;SDS011;6692;50.710;7.180;2024-02-15T02:50:53;3.30;;;3.00;;
13250;SDS011;6692;50.710;7.180;2024-02-15T02:52:54;3.10;;;2.80;;
13250;SDS011;6692;50.710;7.180;2024-02-15T02:54:55;3.30;;;2.90;;
13250;SDS011;6692;50.710;7.180;2024-02-15T02:56:55;2.70;;;2.40;;
13250;SDS011;6692;50.710;7.180;2024-02-15T02:58:56;3.20;;;2.90;;
13250;SDS011;6692;50.710;7.180;2024-02-15T03:00:57;2.80;;;2.60;;
13250;SDS011;6692;50.710;7.180;2024-02-15T03:02:58;3.57;;;2.60;;
13250;SDS011;6692;50.710;7.180;2024-02-15T03:04:58;2.67;;;2.47;;
13250;SDS011;6692;50.710;7.180;2024-02-15T03:07:00;2.43;;;2.30;;
13250;SDS011;6692;50.710;7.180;2024-02-15T03:09:01;2.73;;;2.53;;
13250;SDS011;6692;50.710;7.180;2024-02-15T03:11:03;3.27;;;2.97;;
13250;SDS011;6692;50.710;7.180;2024-02-15T03:13:05;2.60;;;2.40;;
13250;SDS011;6692;50.710;7.180;2024-02-15T03:15:07;2.57;;;2.40;;
13250;SDS011;6692;50.710;7.180;2024-02-15T03:17:09;2.60;;;2.40;;
13250;SDS011;6692;50.710;7.180;2024-02-15T03:19:10;2.50;;;2.30;;
13250;SDS011;6692;50.710;7.180;2024-02-15T03:21:11;5.80;;;2.90;;
13250;SDS011;6692;50.710;7.180;2024-02-15T03:23:13;3.97;;;2.80;;
13250;SDS011;6692;50.710;7.180;2024-02-15T03:25:13;2.87;;;2.67;;
13250;SDS011;6692;50.710;7.180;2024-02-15T03:27:15;3.70;;;2.53;;
13250;SDS011;6692;50.710;7.180;2024-02-15T03:29:16;4.13;;;2.63;;
13250;SDS011;6692;50.710;7.180;2024-02-15T03:31:16;3.00;;;2.70;;
13250;SDS011;6692;50.710;7.180;2024-02-15T03:33:17;3.30;;;3.00;;
13250;SDS011;6692;50.710;7.180;2024-02-15T03:35:19;2.83;;;2.63;;
13250;SDS011;6692;50.710;7.180;2024-02-15T03:37:19;2.83;;;2.47;;
13250;SDS011;6692;50.710;7.180;2024-02-15T03:39:20;3.10;;;2.90;;
13250;SDS011;6692;50.710;7.180;2024-02-15T03:41:21;2.63;;;2.43;;
13250;SDS011;6692;50.710;7.180;2024-02-15T03:43:21;2.53;;;2.33;;
13250;SDS011;6692;50.710;7.180;2024-02-15T03:45:22;2.40;;;2.20;;
13250;SDS011;6692;50.710;7.180;2024-02-15T03:47:23;3.00;;;2.63;;
13250;SDS011;6692;50.710;7.180;2024-02-15T03:49:24;3.00;;;2.70;;
13250;SDS011;6692;50.710;7.180;2024-02-15T03:51:24;3.00;;;2.80;;
13250;SDS011;6692;50.710;7.180;2024-02-15T03:53:25;3.20;;;2.90;;
13250;SDS011;6692;50.710;7.180;2024-02-15T03:55:26;3.13;;;2.63;;
13250;SDS011;6692;50.710;7.180;2024-02-15T03:57:27;3.03;;;2.73;;
13250;SDS011;6692;50.710;7.180;2024-02-15T03:59:28;2.87;;;2.67;;
13250;SDS011;6692;50.710;7.180;2024-02-15T04:01:29;3.10;;;2.77;;
13250;SDS011;6692;50.710;7.180;2024-02-15T04:03:29;2.70;;;2.50;;
13250;SDS011;6692;50.710;7.180;2024-02-15T04:05:30;2.70;;;2.50;;
13250;SDS011;6692;50.710;7.180;2024-02-15T04:07:31;3.10;;;2.43;;
13250;SDS011;6692;50.710;7.180;2024-02-15T04:09:32;3.50;;;3.07;;
13250;SDS011;6692;50.710;7.180;2024-02-15T04:11:33;2.53;;;2.33;;
13250;SDS011;6692;50.710;7.180;2024-02-15T04:13:33;2.90;;;2.60;;
13250;SDS011;6692;50.710;7.180;2024-02-15T04:15:34;2.97;;;2.73;;
13250;SDS011;6692;50.710;7.180;2024-02-15T04:17:36;2.60;;;2.40;;
13250;SDS011;6692;50.710;7.180;2024-02-15T04:19:36;2.60;;;2.40;;
13250;SDS011;6692;50.710;7.180;2024-02-15T04:21:37;3.13;;;2.93;;
13250;SDS011;6692;50.710;7.180;2024-02-15T04:23:38;2.90;;;2.53;;
13250;SDS011;6692;50.710;7.180;2024-02-15T04:25:39;3.00;;;2.80;;
13250;SDS011;6692;50.710;7.180;2024-02-15T04:27:39;2.80;;;2.60;;
13250;SDS011;6692;50.710;7.180;2024-02-15T04:29:40;3.37;;;2.60;;
13250;SDS011;6692;50.710;7.180;2024-02-15T04:31:41;4.03;;;2.67;;
13250;SDS011;6692;50.710;7.180;2024-02-15T04:33:43;2.93;;;2.50;;
13250;SDS011;6692;50.710;7.180;2024-02-15T04:35:44;3.27;;;2.70;;
13250;SDS011;6692;50.710;7.180;2024-02-15T04:37:44;3.13;;;2.87;;
13250;SDS011;6692;50.710;7.180;2024-02-15T04:39:46;2.87;;;2.57;;
13250;SDS011;6692;50.710;7.180;2024-02-15T04:41:46;5.17;;;3.00;;
13250;SDS011;6692;50.710;7.180;2024-02-15T04:43:49;3.07;;;2.77;;
13250;SDS011;6692;50.710;7.180;2024-02-15T04:45:50;2.83;;;2.63;;
13250;SDS011;6692;50.710;7.180;2024-02-15T04:47:50;3.00;;;2.70;;
13250;SDS011;6692;50.710;7.180;2024-02-15T04:49:52;2.57;;;2.30;;
13250;SDS011;6692;50.710;7.180;2024-02-15T04:51:53;3.20;;;2.90;;
13250;SDS011;6692;50.710;7.180;2024-02-15T04:53:54;4.00;;;2.90;;
13250;SDS011;6692;50.710;7.180;2024-02-15T04:55:55;3.20;;;2.90;;
13250;SDS011;6692;50.710;7.180;2024-02-15T04:57:55;3.63;;;2.93;;
13250;SDS011;6692;50.710;7.180;2024-02-15T04:59:56;2.70;;;2.50;;
13250;SDS011;6692;50.710;7.180;2024-02-15T05:01:57;3.13;;;2.70;;
13250;SDS011;6692;50.710;7.180;2024-02-15T05:03:57;4.10;;;3.80;;
13250;SDS011;6692;50.710;7.180;2024-02-15T05:05:58;3.17;;;2.87;;
13250;SDS011;6692;50.710;7.180;2024-02-15T05:08:00;3.90;;;3.00;;
13250;SDS011;6692;50.710;7.180;2024-02-15T05:10:01;3.33;;;2.87;;
13250;SDS011;6692;50.710;7.180;2024-02-15T05:12:02;4.00;;;2.70;;
13250;SDS011;6692;50.710;7.180;2024-02-15T05:14:03;4.43;;;3.20;;
13250;SDS011;6692;50.710;7.180;2024-02-15T05:16:05;4.80;;;2.97;;
13250;SDS011;6692;50.710;7.180;2024-02-15T05:18:07;2.90;;;2.70;;
13250;SDS011;6692;50.710;7.180;2024-02-15T05:20:08;3.20;;;2.70;;
13250;SDS011;6692;50.710;7.180;2024-02-15T05:22:09;4.67;;;3.30;;
13250;SDS011;6692;50.710;7.180;2024-02-15T05:24:09;3.53;;;3.00;;
13250;SDS011;6692;50.710;7.180;2024-02-15T05:26:10;2.90;;;2.60;;
13250;SDS011;6692;50.710;7.180;2024-02-15T05:28:12;2.73;;;2.50;;
13250;SDS011;6692;50.710;7.180;2024-02-15T05:30:13;3.03;;;2.80;;
13250;SDS011;6692;50.710;7.180;2024-02-15T05:32:14;4.27;;;2.80;;
13250;SDS011;6692;50.710;7.180;2024-02-15T05:34:15;5.97;;;2.87;;
13250;SDS011;6692;50.710;7.180;2024-02-15T05:36:17;3.40;;;2.80;;
13250;SDS011;6692;50.710;7.180;2024-02-15T05:38:17;3.00;;;2.70;;
13250;SDS011;6692;50.710;7.180;2024-02-15T05:40:18;2.93;;;2.63;;
13250;SDS011;6692;50.710;7.180;2024-02-15T05:42:19;2.77;;;2.57;;
13250;SDS011;6692;50.710;7.180;2024-02-15T05:44:20;3.73;;;2.70;;
13250;SDS011;6692;50.710;7.180;2024-02-15T05:46:20;3.33;;;3.03;;
13250;SDS011;6692;50.710;7.180;2024-02-15T05:48:21;2.97;;;2.73;;
13250;SDS011;6692;50.710;7.180;2024-02-15T05:50:22;3.37;;;3.07;;
13250;SDS011;6692;50.710;7.180;2024-02-15T05:52:22;3.20;;;2.93;;
13250;SDS011;6692;50.710;7.180;2024-02-15T05:54:23;4.00;;;2.90;;
13250;SDS011;6692;50.710;7.180;2024-02-15T05:56:24;4.03;;;3.30;;
13250;SDS011;6692;50.710;7.180;2024-02-15T05:58:25;2.60;;;2.40;;
13250;SDS011;6692;50.710;7.180;2024-02-15T06:00:25;3.17;;;2.87;;
13250;SDS011;6692;50.710;7.180;2024-02-15T06:02:26;5.70;;;3.00;;
13250;SDS011;6692;50.710;7.180;2024-02-15T06:04:27;4.73;;;2.83;;
13250;SDS011;6692;50.710;7.180;2024-02-15T06:06:27;3.90;;;3.43;;
13250;SDS011;6692;50.710;7.180;2024-02-15T06:08:28;3.47;;;3.17;;
13250;SDS011;6692;50.710;7.180;2024-02-15T06:10:30;4.73;;;3.60;;
13250;SDS011;6692;50.710;7.180;2024-02-15T06:12:31;3.23;;;2.93;;
13250;SDS011;6692;50.710;7.180;2024-02-15T06:14:32;3.60;;;2.90;;
13250;SDS011;6692;50.710;7.180;2024-02-15T06:16:33;4.73;;;3.23;;
13250;SDS011;6692;50.710;7.180;2024-02-15T06:18:33;3.60;;;3.27;;
13250;SDS011;6692;50.710;7.180;2024-02-15T06:20:34;3.83;;;3.23;;
13250;SDS011;6692;50.710;7.180;2024-02-15T06:22:35;3.97;;;3.33;;
13250;SDS011;6692;50.710;7.180;2024-02-15T06:24:36;4.40;;;2.90;;
13250;SDS011;6692;50.710;7.180;2024-02-15T06:26:37;3.73;;;3.43;;
13250;SDS011;6692;50.710;7.180;2024-02-15T06:28:38;4.73;;;3.70;;
13250;SDS011;6692;50.710;7.180;2024-02-15T06:30:45;3.77;;;3.17;;
13250;SDS011;6692;50.710;7.180;2024-02-15T06:32:52;3.70;;;3.23;;
13250;SDS011;6692;50.710;7.180;2024-02-15T06:34:59;4.67;;;3.53;;
13250;SDS011;6692;50.710;7.180;2024-02-15T06:37:06;4.13;;;3.60;;
13250;SDS011;6692;50.710;7.180;2024-02-15T06:39:13;3.87;;;3.50;;
13250;SDS011;6692;50.710;7.180;2024-02-15T06:41:20;6.77;;;3.70;;
13250;SDS011;6692;50.710;7.180;2024-02-15T06:43:20;4.97;;;3.63;;
13250;SDS011;6692;50.710;7.180;2024-02-15T06:45:21;4.63;;;3.87;;
13250;SDS011;6692;50.710;7.180;2024-02-15T06:47:22;3.93;;;3.53;;
13250;SDS011;6692;50.710;7.180;2024-02-15T06:49:23;4.00;;;3.60;;
13250;SDS011;6692;50.710;7.180;2024-02-15T06:51:23;4.37;;;3.53;;
13250;SDS011;6692;50.710;7.180;2024-02-15T06:53:25;4.30;;;3.37;;
13250;SDS011;6692;50.710;7.180;2024-02-15T06:55:25;5.00;;;3.83;;
13250;SDS011;6692;50.710;7.180;2024-02-15T06:57:27;4.83;;;3.77;;
13250;SDS011;6692;50.710;7.180;2024-02-15T06:59:27;3.77;;;3.37;;
13250;SDS011;6692;50.710;7.180;2024-02-15T07:01:29;4.53;;;4.10;;
13250;SDS011;6692;50.710;7.180;2024-02-15T07:03:29;8.87;;;3.77;;
13250;SDS011;6692;50.710;7.180;2024-02-15T07:05:30;4.83;;;3.50;;
13250;SDS011;6692;50.710;7.180;2024-02-15T07:07:31;3.40;;;3.10;;
13250;SDS011;6692;50.710;7.180;2024-02-15T07:09:32;4.47;;;3.57;;
13250;SDS011;6692;50.710;7.180;2024-02-15T07:11:32;4.27;;;3.87;;
13250;SDS011;6692;50.710;7.180;2024-02-15T07:13:33;4.07;;;3.77;;
13250;SDS011;6692;50.710;7.180;2024-02-15T07:15:34;5.10;;;4.00;;
13250;SDS011;6692;50.710;7.180;2024-02-15T07:17:35;4.17;;;3.37;;
13250;SDS011;6692;50.710;7.180;2024-02-15T07:19:35;4.77;;;3.80;;
13250;SDS011;6692;50.710;7.180;2024-02-15T07:21:36;4.93;;;3.60;;
13250;SDS011;6692;50.710;7.180;2024-02-15T07:23:37;4.60;;;3.57;;
13250;SDS011;6692;50.710;7.180;2024-02-15T07:25:38;4.03;;;3.30;;
13250;SDS011;6692;50.710;7.180;2024-02-15T07:27:38;3.67;;;3.27;;
13250;SDS011;6692;50.710;7.180;2024-02-15T07:29:39;3.70;;;3.30;;
13250;SDS011;6692;50.710;7.180;2024-02-15T07:31:40;5.10;;;3.40;;
13250;SDS011;6692;50.710;7.180;2024-02-15T07:33:40;4.97;;;3.60;;
13250;SDS011;6692;50.710;7.180;2024-02-15T07:35:41;5.23;;;3.53;;
13250;SDS011;6692;50.710;7.180;2024-02-15T07:39:52;7.20;;;3.70;;
13250;SDS011;6692;50.710;7.180;2024-02-15T07:41:53;4.40;;;3.93;;
13250;SDS011;6692;50.710;7.180;2024-02-15T07:43:54;3.93;;;3.20;;
13250;SDS011;6692;50.710;7.180;2024-02-15T07:45:55;3.63;;;3.33;;
13250;SDS011;6692;50.710;7.180;2024-02-15T07:47:56;3.67;;;3.37;;
13250;SDS011;6692;50.710;7.180;2024-02-15T07:49:57;3.93;;;3.10;;
13250;SDS011;6692;50.710;7.180;2024-02-15T07:51:57;3.50;;;3.20;;
13250;SDS011;6692;50.710;7.180;2024-02-15T07:53:59;3.53;;;3.07;;
13250;SDS011;6692;50.710;7.180;2024-02-15T07:56:00;4.57;;;3.17;;
13250;SDS011;6692;50.710;7.180;2024-02-15T07:58:01;3.13;;;2.83;;
13250;SDS011;6692;50.710;7.180;2024-02-15T08:00:02;4.17;;;3.20;;
13250;SDS011;6692;50.710;7.180;2024-02-15T08:02:04;3.37;;;3.07;;
13250;SDS011;6692;50.710;7.180;2024-02-15T08:04:05;4.13;;;2.83;;
13250;SDS011;6692;50.710;7.180;2024-02-15T08:06:05;3.40;;;3.10;;
13250;SDS011;6692;50.710;7.180;2024-02-15T08:08:06;4.10;;;3.10;;
13250;SDS011;6692;50.710;7.180;2024-02-15T08:10:07;2.97;;;2.77;;
13250;SDS011;6692;50.710;7.180;2024-02-15T08:12:10;4.23;;;3.37;;
13250;SDS011;6692;50.710;7.180;2024-02-15T08:14:12;3.97;;;3.67;;
13250;SDS011;6692;50.710;7.180;2024-02-15T08:16:12;3.50;;;3.17;;
13250;SDS011;6692;50.710;7.180;2024-02-15T08:18:13;3.30;;;3.00;;
13250;SDS011;6692;50.710;7.180;2024-02-15T08:20:14;3.30;;;2.90;;
13250;SDS011;6692;50.710;7.180;2024-02-15T08:22:14;4.10;;;2.90;;
13250;SDS011;6692;50.710;7.180;2024-02-15T08:24:15;3.20;;;2.90;;
13250;SDS011;6692;50.710;7.180;2024-02-15T08:26:16;3.67;;;2.93;;
13250;SDS011;6692;50.710;7.180;2024-02-15T08:28:16;2.80;;;2.60;;
13250;SDS011;6692;50.710;7.180;2024-02-15T08:30:17;3.57;;;3.00;;
13250;SDS011;6692;50.710;7.180;2024-02-15T08:32:18;5.87;;;3.20;;
13250;SDS011;6692;50.710;7.180;2024-02-15T08:34:19;2.80;;;2.53;;
13250;SDS011;6692;50.710;7.180;2024-02-15T08:36:19;3.40;;;3.10;;
13250;SDS011;6692;50.710;7.180;2024-02-15T08:38:21;3.77;;;3.03;;
13250;SDS011;6692;50.710;7.180;2024-02-15T08:40:21;3.30;;;2.90;;
13250;SDS011;6692;50.710;7.180;2024-02-15T08:42:21;5.13;;;2.67;;
13250;SDS011;6692;50.710;7.180;2024-02-15T08:44:24;4.90;;;2.97;;
13250;SDS011;6692;50.710;7.180;2024-02-15T08:46:24;2.67;;;2.47;;
13250;SDS011;6692;50.710;7.180;2024-02-15T08:48:25;3.47;;;2.70;;
13250;SDS011;6692;50.710;7.180;2024-02-15T08:50:26;3.17;;;2.50;;
13250;SDS011;6692;50.710;7.180;2024-02-15T08:52:27;2.77;;;2.43;;
13250;SDS011;6692;50.710;7.180;2024-02-15T08:54:28;3.20;;;2.80;;
13250;SDS011;6692;50.710;7.180;2024-02-15T08:56:28;3.30;;;2.53;;
13250;SDS011;6692;50.710;7.180;2024-02-15T08:58:29;4.13;;;2.53;;
13250;SDS011;6692;50.710;7.180;2024-02-15T09:00:32;3.87;;;2.60;;
13250;SDS011;6692;50.710;7.180;2024-02-15T09:02:33;3.07;;;2.47;;
13250;SDS011;6692;50.710;7.180;2024-02-15T09:04:34;4.10;;;2.63;;
13250;SDS011;6692;50.710;7.180;2024-02-15T09:06:35;5.03;;;2.60;;
13250;SDS011;6692;50.710;7.180;2024-02-15T09:08:35;3.13;;;2.37;;
13250;SDS011;6692;50.710;7.180;2024-02-15T09:10:37;2.63;;;2.43;;
13250;SDS011;6692;50.710;7.180;2024-02-15T09:12:38;4.73;;;2.90;;
13250;SDS011;6692;50.710;7.180;2024-02-15T09:14:38;3.97;;;2.60;;
13250;SDS011;6692;50.710;7.180;2024-02-15T09:16:39;3.70;;;2.67;;
13250;SDS011;6692;50.710;7.180;2024-02-15T09:18:40;3.13;;;2.70;;
13250;SDS011;6692;50.710;7.180;2024-02-15T09:20:41;2.80;;;2.60;;
13250;SDS011;6692;50.710;7.180;2024-02-15T09:22:43;3.90;;;2.67;;
13250;SDS011;6692;50.710;7.180;2024-02-15T09:24:45;3.40;;;2.83;;
13250;SDS011;6692;50.710;7.180;2024-02-15T09:26:46;3.73;;;2.93;;
13250;SDS011;6692;50.710;7.180;2024-02-15T09:28:47;3.13;;;2.60;;
13250;SDS011;6692;50.710;7.180;2024-02-15T09:30:48;2.70;;;2.50;;
13250;SDS011;6692;50.710;7.180;2024-02-15T09:32:48;3.03;;;2.73;;
13250;SDS011;6692;50.710;7.180;2024-02-15T09:34:49;4.73;;;2.60;;
13250;SDS011;6692;50.710;7.180;2024-02-15T09:36:49;5.73;;;2.87;;
13250;SDS011;6692;50.710;7.180;2024-02-15T09:38:50;3.53;;;2.40;;
13250;SDS011;6692;50.710;7.180;2024-02-15T09:40:51;2.63;;;2.43;;
13250;SDS011;6692;50.710;7.180;2024-02-15T09:42:52;3.97;;;3.40;;
13250;SDS011;6692;50.710;7.180;2024-02-15T09:44:52;3.70;;;2.73;;
13250;SDS011;6692;50.710;7.180;2024-02-15T09:46:57;4.43;;;2.43;;
13250;SDS011;6692;50.710;7.180;2024-02-15T09:48:55;2.80;;;2.50;;
13250;SDS011;6692;50.710;7.180;2024-02-15T09:50:54;3.50;;;2.90;;
13250;SDS011;6692;50.710;7.180;2024-02-15T09:52:55;2.90;;;2.43;;
13250;SDS011;6692;50.710;7.180;2024-02-15T09:54:56;2.83;;;2.50;;
13250;SDS011;6692;50.710;7.180;2024-02-15T09:56:56;3.03;;;2.57;;
13250;SDS011;6692;50.710;7.180;2024-02-15T09:58:58;2.90;;;2.60;;
13250;SDS011;6692;50.710;7.180;2024-02-15T10:00:58;4.00;;;2.90;;
13250;SDS011;6692;50.710;7.180;2024-02-15T10:02:59;4.00;;;2.73;;
13250;SDS011;6692;50.710;7.180;2024-02-15T10:05:00;3.40;;;3.10;;
13250;SDS011;6692;50.710;7.180;2024-02-15T10:07:01;3.40;;;2.60;;
13250;SDS011;6692;50.710;7.180;2024-02-15T10:11:23;4.40;;;2.70;;
13250;SDS011;6692;50.710;7.180;2024-02-15T10:13:24;3.10;;;2.80;;
13250;SDS011;6692;50.710;7.180;2024-02-15T10:15:28;2.57;;;2.37;;
13250;SDS011;6692;50.710;7.180;2024-02-15T10:17:28;2.93;;;2.50;;
13250;SDS011;6692;50.710;7.180;2024-02-15T10:19:29;2.83;;;2.60;;
13250;SDS011;6692;50.710;7.180;2024-02-15T10:21:29;3.57;;;2.70;;
13250;SDS011;6692;50.710;7.180;2024-02-15T10:23:30;2.60;;;2.40;;
13250;SDS011;6692;50.710;7.180;2024-02-15T10:25:31;2.63;;;2.43;;
13250;SDS011;6692;50.710;7.180;2024-02-15T10:27:32;2.83;;;2.53;;
13250;SDS011;6692;50.710;7.180;2024-02-15T10:29:33;2.50;;;2.30;;
13250;SDS011;6692;50.710;7.180;2024-02-15T10:31:35;3.50;;;2.53;;
13250;SDS011;6692;50.710;7.180;2024-02-15T10:33:35;2.93;;;2.70;;
13250;SDS011;6692;50.710;7.180;2024-02-15T10:35:36;2.97;;;2.77;;
13250;SDS011;6692;50.710;7.180;2024-02-15T10:37:37;3.23;;;2.93;;
13250;SDS011;6692;50.710;7.180;2024-02-15T10:39:38;3.30;;;3.00;;
13250;SDS011;6692;50.710;7.180;2024-02-15T10:41:39;2.70;;;2.40;;
13250;SDS011;6692;50.710;7.180;2024-02-15T10:43:40;3.23;;;2.93;;
13250;SDS011;6692;50.710;7.180;2024-02-15T10:45:41;3.60;;;2.70;;
13250;SDS011;6692;50.710;7.180;2024-02-15T10:47:42;4.17;;;3.10;;
13250;SDS011;6692;50.710;7.180;2024-02-15T10:49:42;4.93;;;3.00;;
13250;SDS011;6692;50.710;7.180;2024-02-15T10:51:43;3.30;;;2.67;;
13250;SDS011;6692;50.710;7.180;2024-02-15T10:53:47;3.13;;;2.77;;
13250;SDS011;6692;50.710;7.180;2024-02-15T10:55:48;3.20;;;2.70;;
13250;SDS011;6692;50.710;7.180;2024-02-15T10:57:45;3.33;;;2.90;;
13250;SDS011;6692;50.710;7.180;2024-02-15T10:59:49;3.13;;;2.77;;
13250;SDS011;6692;50.710;7.180;2024-02-15T11:01:46;2.80;;;2.60;;
13250;SDS011;6692;50.710;7.180;2024-02-15T11:03:50;3.43;;;3.00;;
13250;SDS011;6692;50.710;7.180;2024-02-15T11:05:50;2.53;;;2.30;;
13250;SDS011;6692;50.710;7.180;2024-02-15T11:07:51;3.10;;;2.63;;
13250;SDS011;6692;50.710;7.180;2024-02-15T11:09:52;4.27;;;2.73;;
13250;SDS011;6692;50.710;7.180;2024-02-15T11:11:53;3.80;;;2.97;;
13250;SDS011;6692;50.710;7.180;2024-02-15T11:22:56;3.90;;;2.70;;
13250;SDS011;6692;50.710;7.180;2024-02-15T11:24:52;3.17;;;2.87;;
13250;SDS011;6692;50.710;7.180;2024-02-15T11:26:53;4.13;;;2.60;;
13250;SDS011;6692;50.710;7.180;2024-02-15T11:28:54;4.33;;;2.90;;
13250;SDS011;6692;50.710;7.180;2024-02-15T11:30:55;3.30;;;3.00;;
13250;SDS011;6692;50.710;7.180;2024-02-15T11:32:57;3.87;;;2.80;;
13250;SDS011;6692;50.710;7.180;2024-02-15T11:35:02;3.80;;;3.23;;
13250;SDS011;6692;50.710;7.180;2024-02-15T11:37:05;3.97;;;2.77;;
13250;SDS011;6692;50.710;7.180;2024-02-15T11:39:25;2.90;;;2.70;;
13250;SDS011;6692;50.710;7.180;2024-02-15T11:41:06;3.20;;;2.90;;
13250;SDS011;6692;50.710;7.180;2024-02-15T11:43:07;3.70;;;2.90;;
13250;SDS011;6692;50.710;7.180;2024-02-15T11:45:08;4.43;;;2.93;;
13250;SDS011;6692;50.710;7.180;2024-02-15T11:47:09;3.00;;;2.70;;
13250;SDS011;6692;50.710;7.180;2024-02-15T11:49:14;2.57;;;2.20;;
13250;SDS011;6692;50.710;7.180;2024-02-15T11:51:10;2.93;;;2.73;;
13250;SDS011;6692;50.710;7.180;2024-02-15T11:53:11;4.20;;;3.10;;
13250;SDS011;6692;50.710;7.180;2024-02-15T11:55:11;3.47;;;2.60;;
13250;SDS011;6692;50.710;7.180;2024-02-15T11:57:12;2.97;;;2.77;;
13250;SDS011;6692;50.710;7.180;2024-02-15T11:59:13;3.00;;;2.70;;
13250;SDS011;6692;50.710;7.180;2024-02-15T12:01:14;5.37;;;2.97;;
13250;SDS011;6692;50.710;7.180;2024-02-15T12:03:32;2.80;;;2.60;;
13250;SDS011;6692;50.710;7.180;2024-02-15T12:05:38;4.50;;;2.77;;
13250;SDS011;6692;50.710;7.180;2024-02-15T12:08:00;3.40;;;2.63;;
13250;SDS011;6692;50.710;7.180;2024-02-15T12:10:07;4.63;;;2.80;;
13250;SDS011;6692;50.710;7.180;2024-02-15T12:12:15;3.20;;;2.90;;
13250;SDS011;6692;50.710;7.180;2024-02-15T12:14:22;4.37;;;2.83;;
13250;SDS011;6692;50.710;7.180;2024-02-15T12:16:29;3.97;;;2.80;;
13250;SDS011;6692;50.710;7.180;2024-02-15T12:18:36;3.67;;;2.80;;
13250;SDS011;6692;50.710;7.180;2024-02-15T12:20:39;3.30;;;2.80;;
13250;SDS011;6692;50.710;7.180;2024-02-15T12:22:41;3.23;;;2.77;;
13250;SDS011;6692;50.710;7.180;2024-02-15T12:24:41;4.17;;;2.70;;
13250;SDS011;6692;50.710;7.180;2024-02-15T12:26:42;4.13;;;3.00;;
13250;SDS011;6692;50.710;7.180;2024-02-15T12:28:43;3.10;;;2.80;;
13250;SDS011;6692;50.710;7.180;2024-02-15T12:30:44;3.40;;;3.10;;
13250;SDS011;6692;50.710;7.180;2024-02-15T12:32:44;2.90;;;2.53;;
13250;SDS011;6692;50.710;7.180;2024-02-15T12:34:45;3.40;;;2.90;;